createdAt,value
2023-01-13T00:00:39.743Z,4.70
2023-01-13T00:03:08.481Z,3.75
2023-01-13T00:05:37.838Z,3.92
2023-01-13T00:08:06.926Z,4.10
2023-01-13T00:10:35.793Z,3.53
2023-01-13T00:13:05.675Z,3.55
2023-01-13T00:15:34.478Z,4.50
2023-01-13T00:18:05.065Z,4.00
2023-01-13T00:20:33.695Z,4.28
2023-01-13T00:23:02.544Z,4.03
2023-01-13T00:25:31.444Z,3.40
2023-01-13T00:28:00.345Z,3.47
2023-01-13T00:30:28.911Z,3.45
2023-01-13T00:32:57.761Z,4.38
2023-01-13T00:35:27.725Z,3.83
2023-01-13T00:37:56.460Z,4.15
2023-01-13T00:40:25.312Z,3.75
2023-01-13T00:43:11.854Z,3.75
2023-01-13T00:45:40.862Z,3.90
2023-01-13T00:48:09.628Z,3.42
2023-01-13T00:50:39.609Z,3.17
2023-01-13T00:53:08.451Z,3.72
2023-01-13T00:55:37.141Z,3.60
2023-01-13T00:58:05.964Z,3.40
2023-01-13T01:00:34.834Z,3.45
2023-01-13T01:03:04.231Z,3.40
2023-01-13T01:05:35.099Z,3.40
2023-01-13T01:08:05.589Z,3.22
2023-01-13T01:10:34.378Z,3.17
2023-01-13T01:13:03.088Z,3.25
2023-01-13T01:15:31.711Z,4.65
2023-01-13T01:18:00.523Z,2.92
2023-01-13T01:20:29.271Z,3.55
2023-01-13T01:22:58.235Z,3.85
2023-01-13T01:25:28.271Z,3.72
2023-01-13T01:27:57.004Z,3.03
2023-01-13T01:30:25.643Z,4.47
2023-01-13T01:32:54.277Z,3.10
2023-01-13T01:35:22.933Z,3.05
2023-01-13T01:37:51.945Z,3.33
2023-01-13T01:40:20.805Z,2.80
2023-01-13T01:43:08.155Z,3.45
2023-01-13T01:45:37.134Z,4.97
2023-01-13T01:48:06.338Z,2.95
2023-01-13T01:50:35.014Z,3.20
2023-01-13T01:53:10.187Z,2.75
2023-01-13T01:55:38.869Z,3.65
2023-01-13T01:58:12.157Z,2.90
2023-01-13T02:00:41.042Z,3.15
2023-01-13T02:03:09.707Z,2.83
2023-01-13T02:05:39.175Z,2.90
2023-01-13T02:08:07.798Z,4.50
2023-01-13T02:10:36.937Z,3.10
2023-01-13T02:13:09.267Z,3.05
2023-01-13T02:15:42.597Z,3.08
2023-01-13T02:18:23.329Z,2.55
2023-01-13T02:21:43.080Z,3.25
2023-01-13T02:24:53.208Z,2.50
2023-01-13T02:27:54.751Z,2.63
2023-01-13T02:31:00.507Z,3.10
2023-01-13T02:33:39.429Z,2.83
2023-01-13T02:36:14.064Z,2.55
2023-01-13T02:38:50.295Z,2.63
2023-01-13T02:41:44.972Z,2.70
2023-01-13T02:44:13.998Z,2.78
2023-01-13T02:46:51.278Z,2.70
2023-01-13T02:49:26.039Z,2.47
2023-01-13T02:51:58.192Z,3.25
2023-01-13T02:54:28.704Z,2.67
2023-01-13T02:56:57.439Z,2.90
2023-01-13T02:59:28.042Z,3.10
2023-01-13T03:01:59.007Z,3.97
2023-01-13T03:04:55.291Z,2.97
2023-01-13T03:07:50.300Z,2.55
2023-01-13T03:10:28.919Z,2.72
2023-01-13T03:13:03.616Z,2.50
2023-01-13T03:15:40.565Z,2.80
2023-01-13T03:18:20.228Z,2.40
2023-01-13T03:20:56.633Z,2.35
2023-01-13T03:23:31.012Z,2.60
2023-01-13T03:26:05.497Z,2.63
2023-01-13T03:28:37.004Z,2.50
2023-01-13T03:31:08.292Z,2.53
2023-01-13T03:33:40.939Z,2.80
2023-01-13T03:36:10.769Z,2.33
2023-01-13T03:38:40.848Z,2.40
2023-01-13T03:41:11.788Z,2.70
2023-01-13T03:44:00.326Z,2.65
2023-01-13T03:46:31.210Z,2.72
2023-01-13T03:49:01.733Z,2.55
2023-01-13T03:51:31.046Z,2.90
2023-01-13T03:54:01.934Z,2.58
2023-01-13T03:56:32.656Z,2.30
2023-01-13T03:59:01.359Z,2.28
2023-01-13T04:01:34.188Z,2.20
2023-01-13T04:04:07.002Z,2.50
2023-01-13T04:06:39.287Z,2.28
2023-01-13T04:09:13.099Z,3.08
2023-01-13T04:11:45.059Z,2.20
2023-01-13T04:14:13.676Z,2.42
2023-01-13T04:16:42.455Z,2.33
2023-01-13T04:19:12.377Z,2.20
2023-01-13T04:21:41.107Z,2.13
2023-01-13T04:24:10.393Z,2.60
2023-01-13T04:26:39.087Z,2.25
2023-01-13T04:29:07.952Z,2.63
2023-01-13T04:31:37.003Z,2.38
2023-01-13T04:34:05.627Z,2.00
2023-01-13T04:36:35.920Z,2.55
2023-01-13T04:39:04.596Z,2.30
2023-01-13T04:41:54.037Z,2.63
2023-01-13T04:44:22.752Z,2.47
2023-01-13T04:46:51.426Z,2.47
2023-01-13T04:49:20.030Z,2.10
2023-01-13T04:51:50.234Z,2.28
2023-01-13T04:54:18.892Z,2.25
2023-01-13T04:56:47.584Z,2.22
2023-01-13T04:59:16.918Z,2.10
2023-01-13T05:01:45.556Z,2.20
2023-01-13T05:04:15.693Z,2.58
2023-01-13T05:06:44.312Z,2.67
2023-01-13T05:09:15.881Z,2.50
2023-01-13T05:12:01.850Z,2.25
2023-01-13T05:14:47.820Z,2.50
2023-01-13T05:17:21.161Z,2.20
2023-01-13T05:19:49.829Z,2.20
2023-01-13T05:22:36.135Z,2.15
2023-01-13T05:25:25.936Z,2.42
2023-01-13T05:27:55.338Z,2.20
2023-01-13T05:30:24.924Z,2.00
2023-01-13T05:32:53.511Z,2.38
2023-01-13T05:35:22.307Z,2.10
2023-01-13T05:37:50.856Z,2.40
2023-01-13T05:40:38.286Z,2.30
2023-01-13T05:43:24.820Z,2.10
2023-01-13T05:45:57.492Z,1.98
2023-01-13T05:48:28.620Z,3.42
2023-01-13T05:50:57.335Z,2.05
2023-01-13T05:53:26.040Z,2.20
2023-01-13T05:55:56.183Z,2.20
2023-01-13T05:58:26.310Z,2.45
2023-01-13T06:00:55.226Z,2.10
2023-01-13T06:03:24.766Z,2.40
2023-01-13T06:05:58.639Z,3.63
2023-01-13T06:08:27.468Z,2.03
2023-01-13T06:10:57.604Z,2.30
2023-01-13T06:13:26.388Z,2.25
2023-01-13T06:15:58.795Z,2.00
2023-01-13T06:18:27.762Z,4.72
2023-01-13T06:20:56.484Z,4.57
2023-01-13T06:23:25.095Z,2.00
2023-01-13T06:25:59.971Z,3.42
2023-01-13T06:28:28.937Z,6.88
2023-01-13T06:31:00.232Z,5.97
2023-01-13T06:33:30.812Z,2.20
2023-01-13T06:36:03.187Z,3.33
2023-01-13T06:38:32.634Z,2.25
2023-01-13T06:41:02.537Z,3.20
2023-01-13T06:43:30.199Z,2.03
2023-01-13T06:45:58.806Z,2.30
2023-01-13T06:48:29.708Z,3.10
2023-01-13T06:50:58.351Z,4.22
2023-01-13T06:53:27.023Z,3.90
2023-01-13T06:55:55.581Z,2.55
2023-01-13T06:58:25.475Z,3.58
2023-01-13T07:00:54.296Z,2.80
2023-01-13T07:03:23.027Z,2.53
2023-01-13T07:05:55.330Z,2.42
2023-01-13T07:08:24.423Z,6.03
2023-01-13T07:10:53.111Z,4.30
2023-01-13T07:13:39.229Z,2.92
2023-01-13T07:16:10.515Z,2.25
2023-01-13T07:18:39.205Z,2.58
2023-01-13T07:21:08.963Z,2.42
2023-01-13T07:23:38.627Z,2.88
2023-01-13T07:26:07.650Z,3.65
2023-01-13T07:28:36.409Z,2.53
2023-01-13T07:31:05.356Z,3.08
2023-01-13T07:33:35.273Z,2.20
2023-01-13T07:36:05.637Z,2.60
2023-01-13T07:38:34.523Z,2.33
2023-01-13T07:41:23.991Z,2.65
2023-01-13T07:43:51.989Z,2.30
2023-01-13T07:46:20.663Z,2.15
2023-01-13T07:48:50.585Z,2.47
2023-01-13T07:51:19.420Z,2.20
2023-01-13T07:53:47.966Z,8.18
2023-01-13T07:56:16.544Z,16.20
2023-01-13T07:58:50.612Z,13.10
2023-01-13T08:01:19.398Z,10.43
2023-01-13T08:03:49.843Z,23.05
2023-01-13T08:06:18.590Z,18.38
2023-01-13T08:08:47.133Z,18.48
2023-01-13T08:11:15.841Z,22.40
2023-01-13T08:13:44.545Z,11.98
2023-01-13T08:16:17.067Z,16.10
2023-01-13T08:18:45.853Z,10.95
2023-01-13T08:21:16.351Z,9.32
2023-01-13T08:23:46.170Z,13.57
2023-01-13T08:26:17.215Z,9.73
2023-01-13T08:28:45.931Z,15.45
2023-01-13T08:31:17.106Z,13.65
2023-01-13T08:33:46.998Z,24.30
2023-01-13T08:36:18.521Z,16.02
2023-01-13T08:38:47.195Z,11.90
2023-01-13T08:41:37.186Z,16.17
2023-01-13T08:44:06.697Z,19.02
2023-01-13T08:46:35.531Z,12.48
2023-01-13T08:49:04.421Z,16.85
2023-01-13T08:51:34.476Z,12.13
2023-01-13T08:54:03.449Z,16.77
2023-01-13T08:56:35.208Z,12.73
2023-01-13T08:59:04.525Z,11.35
2023-01-13T09:01:34.183Z,15.98
2023-01-13T09:04:02.960Z,14.30
2023-01-13T09:06:33.159Z,10.05
2023-01-13T09:09:02.566Z,11.43
2023-01-13T09:11:50.765Z,11.00
2023-01-13T09:14:20.758Z,15.40
2023-01-13T09:16:49.308Z,10.45
2023-01-13T09:19:18.047Z,12.52
2023-01-13T09:21:48.035Z,12.27
2023-01-13T09:24:16.593Z,14.05
2023-01-13T09:26:45.244Z,9.98
2023-01-13T09:29:14.028Z,9.20
2023-01-13T09:31:44.243Z,8.68
2023-01-13T09:34:33.016Z,9.27
2023-01-13T09:37:03.480Z,7.95
2023-01-13T09:39:33.262Z,8.32
2023-01-13T09:42:24.176Z,10.73
2023-01-13T09:44:56.497Z,8.77
2023-01-13T09:47:29.081Z,10.75
2023-01-13T09:50:03.608Z,10.95
2023-01-13T09:52:33.605Z,8.30
2023-01-13T09:55:05.158Z,8.77
2023-01-13T09:57:37.109Z,8.70
2023-01-13T10:00:12.471Z,7.95
2023-01-13T10:02:56.393Z,15.27
2023-01-13T10:05:33.420Z,14.02
2023-01-13T10:08:05.800Z,17.17
2023-01-13T10:10:41.811Z,15.32
2023-01-13T10:13:20.340Z,9.50
2023-01-13T10:16:09.450Z,9.48
2023-01-13T10:18:46.264Z,15.20
2023-01-13T10:21:28.739Z,14.57
2023-01-13T10:24:03.115Z,13.05
2023-01-13T10:26:46.462Z,10.93
2023-01-13T10:29:26.279Z,9.95
2023-01-13T10:31:55.827Z,10.60
2023-01-13T10:34:24.948Z,10.48
2023-01-13T10:37:01.670Z,10.38
2023-01-13T10:39:40.231Z,9.05
2023-01-13T10:42:15.882Z,12.70
2023-01-13T10:44:50.201Z,10.50
2023-01-13T10:47:23.843Z,23.42
2023-01-13T10:50:22.677Z,10.52
2023-01-13T10:53:00.063Z,16.52
2023-01-13T10:55:33.183Z,20.02
2023-01-13T10:58:14.109Z,18.08
2023-01-13T11:00:42.756Z,23.50
2023-01-13T11:03:19.596Z,17.35
2023-01-13T11:05:53.501Z,20.92
2023-01-13T11:08:23.938Z,15.45
2023-01-13T11:10:55.820Z,21.67
2023-01-13T11:13:30.432Z,17.70
2023-01-13T11:16:03.798Z,23.83
2023-01-13T11:18:41.425Z,20.85
2023-01-13T11:21:15.658Z,25.30
2023-01-13T11:23:46.861Z,24.42
2023-01-13T11:26:20.927Z,22.95
2023-01-13T11:28:53.391Z,21.85
2023-01-13T11:31:24.629Z,26.52
2023-01-13T11:33:56.653Z,23.70
2023-01-13T11:36:27.300Z,30.65
2023-01-13T11:38:57.333Z,26.20
2023-01-13T11:41:33.620Z,26.40
2023-01-13T11:44:12.155Z,26.67
2023-01-13T11:46:41.082Z,28.65
2023-01-13T11:49:12.594Z,29.63
2023-01-13T11:51:44.844Z,25.52
2023-01-13T11:54:53.425Z,29.08
2023-01-13T11:58:15.346Z,23.90
2023-01-13T12:01:14.828Z,24.40
2023-01-13T12:03:44.805Z,20.27
2023-01-13T12:06:21.714Z,19.60
2023-01-13T12:09:31.393Z,19.60
2023-01-13T12:12:20.624Z,23.27
2023-01-13T12:15:29.437Z,23.67
2023-01-13T12:18:13.999Z,25.20
2023-01-13T12:20:50.782Z,29.48
2023-01-13T12:23:33.598Z,26.05
2023-01-13T12:26:07.892Z,28.17
2023-01-13T12:28:44.785Z,24.10
2023-01-13T12:31:15.068Z,26.17
2023-01-13T12:33:55.883Z,23.05
2023-01-13T12:36:29.312Z,27.05
2023-01-13T12:38:59.782Z,23.42
2023-01-13T12:41:59.466Z,24.33
2023-01-13T12:44:27.137Z,23.90
2023-01-13T12:46:57.814Z,21.73
2023-01-13T12:49:28.986Z,23.50
2023-01-13T12:52:14.066Z,21.50
2023-01-13T12:55:19.692Z,20.27
2023-01-13T12:58:14.026Z,18.98
2023-01-13T13:01:02.200Z,15.88
2023-01-13T13:03:36.348Z,20.90
2023-01-13T13:06:23.447Z,21.60
2023-01-13T13:09:03.685Z,17.30
2023-01-13T13:12:02.038Z,17.88
2023-01-13T13:15:04.487Z,15.10
2023-01-13T13:17:46.878Z,17.40
2023-01-13T13:21:01.164Z,17.75
2023-01-13T13:23:49.162Z,16.00
2023-01-13T13:26:33.866Z,16.25
2023-01-13T13:29:38.246Z,14.60
2023-01-13T13:32:24.753Z,16.48
2023-01-13T13:35:13.712Z,16.27
2023-01-13T13:38:15.061Z,17.38
2023-01-13T13:41:03.773Z,18.00
2023-01-13T13:43:56.691Z,13.95
2023-01-13T13:46:45.300Z,12.45
2023-01-13T13:49:14.100Z,14.25
2023-01-13T13:51:46.468Z,14.90
2023-01-13T13:54:18.616Z,12.88
2023-01-13T13:56:47.847Z,11.82
2023-01-13T13:59:19.598Z,14.10
2023-01-13T14:01:51.786Z,15.25
2023-01-13T14:04:21.878Z,11.57
2023-01-13T14:06:56.145Z,16.00
2023-01-13T14:09:28.792Z,13.05
2023-01-13T14:11:59.885Z,13.13
2023-01-13T14:14:28.722Z,10.18
2023-01-13T14:16:57.461Z,12.25
2023-01-13T14:19:36.335Z,15.52
2023-01-13T14:22:05.999Z,11.30
2023-01-13T14:24:36.029Z,13.82
2023-01-13T14:27:11.959Z,10.18
2023-01-13T14:29:40.873Z,14.60
2023-01-13T14:32:09.832Z,11.48
2023-01-13T14:34:38.958Z,10.60
2023-01-13T14:37:29.825Z,12.77
2023-01-13T14:39:59.953Z,9.90
2023-01-13T14:42:29.788Z,13.90
2023-01-13T14:44:58.720Z,11.43
2023-01-13T14:47:28.880Z,11.73
2023-01-13T14:50:03.300Z,8.35
2023-01-13T14:52:33.390Z,16.15
2023-01-13T14:55:26.286Z,10.73
2023-01-13T14:57:54.962Z,12.55
2023-01-13T15:00:26.110Z,12.60
2023-01-13T15:03:08.546Z,10.05
2023-01-13T15:05:47.355Z,11.65
2023-01-13T15:08:37.677Z,13.38
2023-01-13T15:11:09.367Z,11.95
2023-01-13T15:13:47.655Z,12.90
2023-01-13T15:16:25.073Z,13.15
2023-01-13T15:18:55.615Z,12.90
2023-01-13T15:21:25.172Z,20.67
2023-01-13T15:23:53.737Z,12.20
2023-01-13T15:26:25.814Z,12.43
2023-01-13T15:28:54.719Z,13.05
2023-01-13T15:31:23.648Z,11.50
2023-01-13T15:33:52.466Z,15.98
2023-01-13T15:36:27.281Z,13.77
2023-01-13T15:38:56.097Z,12.98
2023-01-13T15:41:43.538Z,11.48
2023-01-13T15:44:30.567Z,11.32
2023-01-13T15:47:01.913Z,10.95
2023-01-13T15:50:24.194Z,14.30
2023-01-13T15:57:51.279Z,10.85
2023-01-13T16:00:22.284Z,9.82
2023-01-13T16:02:56.795Z,13.00
2023-01-13T16:05:28.290Z,11.65
2023-01-13T16:07:56.949Z,9.45
2023-01-13T16:10:27.762Z,18.45
2023-01-13T16:12:57.877Z,13.02
2023-01-13T16:15:26.499Z,9.30
2023-01-13T16:17:57.598Z,10.88
2023-01-13T16:20:26.451Z,11.23
2023-01-13T16:22:55.010Z,14.20
2023-01-13T16:25:25.210Z,10.55
2023-01-13T16:27:54.319Z,10.15
2023-01-13T16:30:26.751Z,10.00
2023-01-13T16:32:56.151Z,11.70
2023-01-13T16:35:25.242Z,10.82
2023-01-13T16:37:55.170Z,8.45
2023-01-13T16:40:25.819Z,8.32
2023-01-13T16:42:54.423Z,9.43
2023-01-13T16:45:24.818Z,13.45
2023-01-13T16:47:53.750Z,10.23
2023-01-13T16:50:30.059Z,7.47
2023-01-13T16:52:59.031Z,8.32
2023-01-13T16:55:28.363Z,8.60
2023-01-13T16:57:56.999Z,9.23
2023-01-13T17:00:27.767Z,17.20
2023-01-13T17:02:58.887Z,26.58
2023-01-13T17:05:27.804Z,20.77
2023-01-13T17:07:57.391Z,49.53
2023-01-13T17:10:26.410Z,56.40
2023-01-13T17:12:56.051Z,60.85
2023-01-13T17:15:26.215Z,78.80
2023-01-13T17:17:55.335Z,51.75
2023-01-13T17:20:24.043Z,38.65
2023-01-13T17:22:58.357Z,53.45
2023-01-13T17:25:27.631Z,46.13
2023-01-13T17:27:56.254Z,47.63
2023-01-13T17:30:26.747Z,45.08
2023-01-13T17:32:55.568Z,49.00
2023-01-13T17:35:25.127Z,46.65
2023-01-13T17:37:53.971Z,44.13
2023-01-13T17:40:22.932Z,43.22
2023-01-13T17:42:51.589Z,44.22
2023-01-13T17:45:20.222Z,39.28
2023-01-13T17:47:50.467Z,40.95
2023-01-13T17:50:19.188Z,39.65
2023-01-13T17:52:47.962Z,35.00
2023-01-13T17:55:16.918Z,40.00
2023-01-13T17:57:45.798Z,35.88
2023-01-13T18:00:18.583Z,35.35
2023-01-13T18:02:47.418Z,33.83
2023-01-13T18:05:17.585Z,34.30
2023-01-13T18:07:46.178Z,30.27
2023-01-13T18:10:15.816Z,32.17
2023-01-13T18:12:44.397Z,36.03
2023-01-13T18:15:12.986Z,34.75
2023-01-13T18:17:41.627Z,32.10
2023-01-13T18:20:33.852Z,32.17
2023-01-13T18:23:20.160Z,31.88
2023-01-13T18:26:06.409Z,27.45
2023-01-13T18:28:35.062Z,32.75
2023-01-13T18:31:03.731Z,33.63
2023-01-13T18:33:32.414Z,28.95
2023-01-13T18:36:07.600Z,29.88
2023-01-13T18:38:36.258Z,28.17
2023-01-13T18:41:28.102Z,31.70
2023-01-13T18:43:55.658Z,27.75
2023-01-13T18:46:24.598Z,41.75
2023-01-13T18:48:53.334Z,41.53
2023-01-13T18:51:23.467Z,35.45
2023-01-13T18:53:52.095Z,33.58
2023-01-13T18:56:20.927Z,29.25
2023-01-13T18:58:51.919Z,34.95
2023-01-13T19:01:22.697Z,36.42
2023-01-13T19:03:56.453Z,34.60
2023-01-13T19:06:28.857Z,34.47
2023-01-13T19:09:00.781Z,33.83
2023-01-13T19:11:31.564Z,33.10
2023-01-13T19:14:00.242Z,30.27
2023-01-13T19:16:29.219Z,30.88
2023-01-13T19:18:58.079Z,31.85
2023-01-13T19:21:28.372Z,28.63
2023-01-13T19:23:57.192Z,28.77
2023-01-13T19:26:26.058Z,26.58
2023-01-13T19:28:54.737Z,26.45
2023-01-13T19:31:23.379Z,28.75
2023-01-13T19:33:52.188Z,32.38
2023-01-13T19:36:20.891Z,27.02
2023-01-13T19:38:51.062Z,25.10
2023-01-13T19:41:33.788Z,23.98
2023-01-13T19:44:25.298Z,27.27
2023-01-13T19:46:53.909Z,25.77
2023-01-13T19:49:22.525Z,25.10
2023-01-13T19:51:51.594Z,26.88
2023-01-13T19:54:21.774Z,24.20
2023-01-13T19:56:50.470Z,23.77
2023-01-13T19:59:22.337Z,23.50
2023-01-13T20:01:51.117Z,27.27
2023-01-13T20:04:27.281Z,22.23
2023-01-13T20:06:56.284Z,23.17
2023-01-13T20:09:26.317Z,27.38
2023-01-13T20:11:54.933Z,25.10
2023-01-13T20:14:23.971Z,20.30
2023-01-13T20:16:52.512Z,22.33
2023-01-13T20:19:21.328Z,20.23
2023-01-13T20:21:49.985Z,22.05
2023-01-13T20:24:18.799Z,24.23
2023-01-13T20:26:48.791Z,20.85
2023-01-13T20:29:17.475Z,21.05
2023-01-13T20:31:46.825Z,21.85
2023-01-13T20:34:15.724Z,17.63
2023-01-13T20:36:44.437Z,19.15
2023-01-13T20:39:15.612Z,18.15
2023-01-13T20:42:01.806Z,17.88
2023-01-13T20:44:31.945Z,19.13
2023-01-13T20:47:00.604Z,21.20
2023-01-13T20:49:30.286Z,21.75
2023-01-13T20:52:00.045Z,16.88
2023-01-13T20:54:28.837Z,19.73
2023-01-13T20:56:57.451Z,16.92
2023-01-13T20:59:25.983Z,17.25
2023-01-13T21:01:56.421Z,17.80
2023-01-13T21:04:24.999Z,21.25
2023-01-13T21:06:53.717Z,17.50
2023-01-13T21:09:23.418Z,17.15
2023-01-13T21:12:09.795Z,16.13
2023-01-13T21:14:56.046Z,17.88
2023-01-13T21:17:45.776Z,18.30
2023-01-13T21:20:15.703Z,16.42
2023-01-13T21:22:46.226Z,17.75
2023-01-13T21:25:14.939Z,19.15
2023-01-13T21:27:44.501Z,17.85
2023-01-13T21:30:14.976Z,16.67
2023-01-13T21:32:45.948Z,15.63
2023-01-13T21:35:15.085Z,15.68
2023-01-13T21:37:44.434Z,15.65
2023-01-13T21:40:14.608Z,16.08
2023-01-13T21:43:00.568Z,16.90
2023-01-13T21:45:46.438Z,15.65
2023-01-13T21:48:16.601Z,16.60
2023-01-13T21:50:45.500Z,15.23
2023-01-13T21:53:14.187Z,16.55
2023-01-13T21:55:42.809Z,16.98
2023-01-13T21:58:12.845Z,13.50
2023-01-13T22:00:42.431Z,15.52
2023-01-13T22:03:11.917Z,14.00
2023-01-13T22:05:42.238Z,12.73
2023-01-13T22:08:13.597Z,13.55
2023-01-13T22:10:57.477Z,14.65
2023-01-13T22:13:44.859Z,14.43
2023-01-13T22:16:13.675Z,15.88
2023-01-13T22:18:42.426Z,12.45
2023-01-13T22:21:12.438Z,14.57
2023-01-13T22:23:41.120Z,13.50
2023-01-13T22:26:09.794Z,11.60
2023-01-13T22:28:43.285Z,13.32
2023-01-13T22:31:12.344Z,15.98
2023-01-13T22:33:41.480Z,13.02
2023-01-13T22:36:11.771Z,11.73
2023-01-13T22:38:40.661Z,13.18
2023-01-13T22:41:10.001Z,13.35
2023-01-13T22:43:39.004Z,12.85
2023-01-13T22:46:09.288Z,13.93
2023-01-13T22:48:38.445Z,13.07
2023-01-13T22:51:08.290Z,13.38
2023-01-13T22:53:38.710Z,13.70
2023-01-13T22:56:08.172Z,12.88
2023-01-13T22:58:36.879Z,10.27
2023-01-13T23:01:11.907Z,12.55
2023-01-13T23:03:40.920Z,11.45
2023-01-13T23:06:09.995Z,11.38
2023-01-13T23:08:40.226Z,12.35
2023-01-13T23:11:12.460Z,9.20
2023-01-13T23:13:43.337Z,11.57
2023-01-13T23:16:13.139Z,12.40
2023-01-13T23:18:42.641Z,11.65
2023-01-13T23:21:13.473Z,13.10
2023-01-13T23:23:43.480Z,11.52
2023-01-13T23:26:12.401Z,11.60
2023-01-13T23:28:41.005Z,9.48
2023-01-13T23:31:10.398Z,10.57
2023-01-13T23:33:41.205Z,11.77
2023-01-13T23:36:13.075Z,12.60
2023-01-13T23:38:43.263Z,14.95
2023-01-13T23:41:15.584Z,12.63
2023-01-13T23:43:44.249Z,17.20
2023-01-13T23:46:14.190Z,13.85
2023-01-13T23:48:42.816Z,16.05
2023-01-13T23:51:13.435Z,13.13
2023-01-13T23:53:45.005Z,13.23
2023-01-13T23:56:15.608Z,10.98
2023-01-13T23:58:44.451Z,12.32
